Aviation Digital Data Service (ADDS)

Output produced by METARs form (2159 UTC 01 December 2021)
found at http://aviationweather.gov/metar/data/
 
KMCB 012153Z AUTO 21009KT 10SM CLR 22/13 A3008 RMK AO2 SLP184 T02220128
KMCB 011740Z 0118/0218 21007KT P6SM FEW035 
     FM012100 24007KT P6SM FEW250 
     FM020900 00000KT 1/2SM FG SCT015 
     FM021100 00000KT 1/4SM FG BKN001 
     FM021400 00000KT 1 1/2SM BR FEW003 
     FM021500 VRB03KT P6SM FEW025